createdAt,value
2023-03-31T00:00:24.446Z,78.96
2023-03-31T00:03:34.552Z,79.48
2023-03-31T00:06:43.064Z,79.53
2023-03-31T00:10:10.394Z,79.84
2023-03-31T00:13:22.389Z,80.20
2023-03-31T00:16:29.913Z,80.70
2023-03-31T00:19:36.293Z,81.15
2023-03-31T00:22:47.082Z,81.31
2023-03-31T00:25:55.699Z,81.71
2023-03-31T00:29:04.556Z,81.47
2023-03-31T00:32:11.088Z,81.82
2023-03-31T00:35:18.257Z,82.04
2023-03-31T00:38:24.962Z,81.80
2023-03-31T00:41:34.775Z,81.72
2023-03-31T00:45:18.415Z,81.76
2023-03-31T00:48:27.972Z,82.08
2023-03-31T00:51:38.829Z,82.51
2023-03-31T00:54:52.733Z,82.10
2023-03-31T00:58:04.431Z,82.04
2023-03-31T01:01:11.449Z,81.71
2023-03-31T01:04:24.298Z,82.07
2023-03-31T01:07:43.817Z,81.89
2023-03-31T01:10:57.143Z,81.66
2023-03-31T01:14:07.224Z,81.37
2023-03-31T01:17:19.623Z,81.48
2023-03-31T01:20:51.095Z,81.19
2023-03-31T01:24:36.160Z,81.13
2023-03-31T01:28:25.104Z,81.16
2023-03-31T01:32:19.185Z,80.82
2023-03-31T01:36:12.795Z,81.30
2023-03-31T01:40:14.027Z,81.13
2023-03-31T01:43:32.495Z,81.05
2023-03-31T01:46:55.473Z,81.18
2023-03-31T01:50:14.303Z,81.35
2023-03-31T01:53:35.638Z,81.15
2023-03-31T01:56:56.101Z,81.60
2023-03-31T02:00:11.893Z,81.83
2023-03-31T02:03:33.385Z,81.49
2023-03-31T02:06:50.333Z,81.25
2023-03-31T02:10:16.354Z,81.24
2023-03-31T02:13:34.620Z,81.46
2023-03-31T02:16:48.117Z,81.16
2023-03-31T02:19:57.371Z,81.10
2023-03-31T02:23:05.843Z,80.95
2023-03-31T02:26:19.752Z,81.63
2023-03-31T02:29:31.908Z,81.57
2023-03-31T02:32:43.921Z,81.79
2023-03-31T02:35:51.954Z,81.92
2023-03-31T02:39:09.568Z,81.66
2023-03-31T02:42:16.747Z,81.64
2023-03-31T02:45:48.420Z,81.70
2023-03-31T02:49:05.104Z,80.98
2023-03-31T02:53:01.655Z,81.57
2023-03-31T02:56:44.019Z,81.60
2023-03-31T03:00:20.387Z,81.72
2023-03-31T03:03:53.359Z,80.60
2023-03-31T03:07:15.859Z,81.23
2023-03-31T03:10:43.801Z,81.00
2023-03-31T03:14:05.805Z,80.54
2023-03-31T03:17:21.849Z,81.51
2023-03-31T03:20:30.777Z,81.43
2023-03-31T03:23:37.628Z,80.80
2023-03-31T03:26:45.111Z,81.36
2023-03-31T03:29:52.126Z,81.47
2023-03-31T03:32:59.196Z,81.79
2023-03-31T03:36:12.965Z,81.95
2023-03-31T03:39:19.929Z,82.19
2023-03-31T03:42:26.911Z,82.05
2023-03-31T03:45:32.880Z,82.29
2023-03-31T03:48:41.988Z,82.37
2023-03-31T03:51:51.034Z,82.65
2023-03-31T03:54:57.882Z,82.30
2023-03-31T03:58:03.935Z,82.04
2023-03-31T04:01:10.952Z,82.62
2023-03-31T04:04:17.171Z,82.21
2023-03-31T04:07:27.385Z,82.53
2023-03-31T04:10:33.594Z,82.90
2023-03-31T04:13:40.585Z,82.80
2023-03-31T04:16:47.111Z,83.10
2023-03-31T04:19:54.063Z,83.51
2023-03-31T04:23:03.010Z,83.45
2023-03-31T04:26:10.705Z,82.66
2023-03-31T04:29:20.934Z,82.90
2023-03-31T04:32:28.686Z,82.39
2023-03-31T04:35:49.998Z,82.30
2023-03-31T04:38:59.551Z,82.26
2023-03-31T04:42:05.618Z,82.38
2023-03-31T04:45:14.296Z,82.47
2023-03-31T04:48:20.379Z,82.51
2023-03-31T04:51:27.169Z,82.14
2023-03-31T04:54:35.790Z,81.97
2023-03-31T04:57:42.646Z,81.75
2023-03-31T05:00:48.708Z,82.18
2023-03-31T05:03:55.632Z,82.33
2023-03-31T05:07:01.732Z,82.53
2023-03-31T05:10:12.664Z,82.49
2023-03-31T05:13:19.198Z,82.28
2023-03-31T05:16:26.192Z,82.15
2023-03-31T05:19:32.602Z,81.81
2023-03-31T05:22:43.858Z,81.21
2023-03-31T05:25:56.704Z,81.09
2023-03-31T05:29:08.720Z,81.17
2023-03-31T05:32:15.058Z,81.36
2023-03-31T05:35:22.502Z,80.78
2023-03-31T05:38:32.028Z,78.88
2023-03-31T05:41:41.544Z,76.88
2023-03-31T05:44:47.740Z,76.25
2023-03-31T05:47:57.698Z,73.56
2023-03-31T05:51:14.339Z,71.88
2023-03-31T05:54:21.219Z,70.00
2023-03-31T05:57:30.015Z,69.49
2023-03-31T06:00:40.465Z,67.92
2023-03-31T06:03:46.685Z,67.23
2023-03-31T06:06:54.470Z,65.03
2023-03-31T06:10:00.645Z,65.48
2023-03-31T06:13:10.386Z,64.72
2023-03-31T06:16:19.277Z,64.05
2023-03-31T06:19:32.447Z,62.80
2023-03-31T06:22:42.698Z,62.54
2023-03-31T06:25:51.762Z,61.52
2023-03-31T06:29:10.456Z,60.67
2023-03-31T06:32:17.562Z,60.44
2023-03-31T06:35:23.602Z,58.92
2023-03-31T06:38:30.891Z,58.96
2023-03-31T06:41:43.778Z,58.98
2023-03-31T06:44:53.398Z,57.89
2023-03-31T06:47:59.573Z,57.57
2023-03-31T06:51:11.184Z,56.70
2023-03-31T06:54:17.179Z,58.73
2023-03-31T06:57:24.300Z,56.93
2023-03-31T07:00:33.280Z,55.35
2023-03-31T07:03:40.193Z,55.16
2023-03-31T07:06:46.230Z,54.20
2023-03-31T07:09:56.163Z,54.63
2023-03-31T07:13:09.390Z,53.27
2023-03-31T07:16:18.995Z,52.48
2023-03-31T07:19:25.155Z,52.31
2023-03-31T07:22:32.074Z,54.18
2023-03-31T07:25:39.293Z,52.94
2023-03-31T07:28:46.235Z,51.14
2023-03-31T07:31:55.018Z,51.46
2023-03-31T07:35:02.089Z,51.52
2023-03-31T07:38:08.343Z,50.10
2023-03-31T07:41:17.407Z,49.60
2023-03-31T07:44:23.753Z,48.51
2023-03-31T07:47:33.318Z,48.17
2023-03-31T07:50:39.555Z,51.94
2023-03-31T07:53:55.258Z,54.34
2023-03-31T07:57:03.843Z,53.81
2023-03-31T08:00:14.435Z,54.25
2023-03-31T08:03:23.100Z,52.35
2023-03-31T08:06:30.526Z,51.25
2023-03-31T08:09:39.018Z,52.31
2023-03-31T08:12:46.555Z,54.04
2023-03-31T08:15:52.646Z,53.88
2023-03-31T08:19:02.205Z,53.67
2023-03-31T08:22:17.421Z,54.16
2023-03-31T08:25:24.673Z,54.09
2023-03-31T08:28:30.720Z,54.94
2023-03-31T08:31:45.017Z,52.37
2023-03-31T08:34:56.412Z,51.20
2023-03-31T08:38:03.252Z,49.56
2023-03-31T08:41:31.076Z,47.88
2023-03-31T08:44:48.741Z,46.84
2023-03-31T08:48:03.564Z,45.88
2023-03-31T08:51:23.151Z,46.92
2023-03-31T08:54:44.527Z,47.38
2023-03-31T08:58:06.095Z,47.89
2023-03-31T09:01:44.148Z,45.39
2023-03-31T09:05:56.723Z,45.16
2023-03-31T09:09:19.098Z,45.64
2023-03-31T09:12:41.544Z,43.06
2023-03-31T09:16:11.117Z,43.18
2023-03-31T09:19:41.731Z,42.79
2023-03-31T09:22:59.041Z,42.55
2023-03-31T09:26:21.548Z,44.39
2023-03-31T09:29:40.935Z,46.36
2023-03-31T09:32:56.092Z,45.26
2023-03-31T09:36:02.654Z,46.89
2023-03-31T09:39:13.639Z,49.04
2023-03-31T09:42:22.829Z,48.67
2023-03-31T09:45:34.272Z,50.02
2023-03-31T09:48:45.916Z,50.12
2023-03-31T09:52:13.154Z,50.57
2023-03-31T09:55:38.792Z,52.00
2023-03-31T09:58:49.989Z,52.00
2023-03-31T10:02:03.272Z,51.86
2023-03-31T10:05:25.373Z,53.23
2023-03-31T10:08:36.962Z,53.28
2023-03-31T10:11:56.793Z,52.79
2023-03-31T10:15:24.437Z,53.76
2023-03-31T10:18:44.650Z,53.09
2023-03-31T10:21:58.873Z,54.36
2023-03-31T10:25:19.610Z,53.59
2023-03-31T10:28:27.229Z,54.93
2023-03-31T10:31:44.574Z,54.20
2023-03-31T10:34:57.566Z,54.97
2023-03-31T10:38:14.051Z,55.07
2023-03-31T10:41:25.625Z,56.40
2023-03-31T10:44:40.060Z,58.56
2023-03-31T10:47:57.137Z,58.16
2023-03-31T10:51:15.218Z,58.29
2023-03-31T10:54:21.793Z,58.99
2023-03-31T10:57:48.595Z,58.66
2023-03-31T11:01:17.757Z,57.27
2023-03-31T11:05:01.220Z,56.57
2023-03-31T11:08:52.553Z,57.27
2023-03-31T11:12:19.368Z,57.54
2023-03-31T11:15:37.956Z,57.27
2023-03-31T11:19:09.415Z,56.18
2023-03-31T11:22:33.474Z,55.08
2023-03-31T11:25:54.770Z,55.03
2023-03-31T11:29:27.209Z,54.84
2023-03-31T11:32:56.955Z,53.06
2023-03-31T11:36:33.598Z,52.09
2023-03-31T11:40:11.576Z,51.44
2023-03-31T11:43:44.841Z,50.78
2023-03-31T11:47:05.063Z,50.73
2023-03-31T11:50:22.355Z,50.19
2023-03-31T11:53:37.538Z,50.36
2023-03-31T11:56:47.556Z,50.05
2023-03-31T12:00:02.713Z,51.19
2023-03-31T12:03:27.449Z,50.42
2023-03-31T12:06:45.408Z,48.27
2023-03-31T12:10:06.221Z,46.60
2023-03-31T12:13:48.687Z,46.60
2023-03-31T12:17:07.585Z,47.53
2023-03-31T12:20:32.954Z,47.77
2023-03-31T12:23:47.589Z,47.79
2023-03-31T12:27:10.105Z,47.67
2023-03-31T12:30:34.848Z,46.61
2023-03-31T12:33:54.451Z,44.90
2023-03-31T12:37:31.894Z,46.51
2023-03-31T12:40:57.929Z,46.86
2023-03-31T12:44:27.277Z,46.65
2023-03-31T12:48:17.189Z,46.01
2023-03-31T12:51:56.614Z,44.83
2023-03-31T12:55:39.383Z,45.74
2023-03-31T12:58:49.376Z,46.29
2023-03-31T13:02:29.158Z,46.02
2023-03-31T13:05:50.749Z,46.47
2023-03-31T13:09:01.288Z,47.24
2023-03-31T13:12:11.949Z,48.53
2023-03-31T13:15:20.502Z,48.39
2023-03-31T13:18:28.631Z,48.81
2023-03-31T13:21:58.829Z,48.70
2023-03-31T13:25:41.426Z,48.61
2023-03-31T13:28:48.315Z,49.03
2023-03-31T13:32:32.653Z,49.08
2023-03-31T13:35:53.497Z,49.99
2023-03-31T13:39:30.103Z,51.17
2023-03-31T13:43:12.399Z,52.17
2023-03-31T13:47:05.182Z,53.78
2023-03-31T13:50:39.290Z,56.07
2023-03-31T13:54:25.811Z,57.73
2023-03-31T13:58:29.922Z,60.00
2023-03-31T14:02:38.993Z,61.62
2023-03-31T14:05:53.977Z,62.77
2023-03-31T14:09:09.733Z,64.68
2023-03-31T14:12:26.567Z,66.12
2023-03-31T14:15:33.917Z,67.28
2023-03-31T14:19:05.224Z,67.28
2023-03-31T14:22:36.339Z,69.52
2023-03-31T14:26:02.298Z,70.41
2023-03-31T14:29:27.298Z,71.41
2023-03-31T14:32:51.444Z,72.53
2023-03-31T14:36:08.591Z,73.38
2023-03-31T14:39:21.538Z,73.93
2023-03-31T14:42:41.291Z,73.62
2023-03-31T14:45:51.980Z,74.90
2023-03-31T14:48:58.059Z,74.37
2023-03-31T14:52:17.321Z,75.35
2023-03-31T14:55:54.392Z,76.27
2023-03-31T14:59:06.682Z,75.80
2023-03-31T15:02:25.109Z,75.85
2023-03-31T15:05:37.393Z,75.81
2023-03-31T15:08:44.835Z,77.10
2023-03-31T15:12:01.803Z,76.15
2023-03-31T15:15:21.533Z,78.03
2023-03-31T15:18:31.189Z,77.78
2023-03-31T15:21:42.465Z,76.27
2023-03-31T15:24:50.110Z,76.61
2023-03-31T15:28:06.910Z,77.67
2023-03-31T15:31:19.133Z,77.24
2023-03-31T15:34:33.824Z,77.34
2023-03-31T15:37:45.946Z,76.83
2023-03-31T15:40:59.769Z,77.67
2023-03-31T15:44:31.559Z,77.25
2023-03-31T15:47:55.591Z,76.31
2023-03-31T15:51:10.547Z,75.93
2023-03-31T15:54:37.177Z,75.71
2023-03-31T15:57:48.153Z,73.40
2023-03-31T16:01:09.397Z,73.30
2023-03-31T16:04:21.302Z,73.31
2023-03-31T16:07:33.807Z,73.00
2023-03-31T16:10:40.860Z,72.42
2023-03-31T16:13:55.628Z,72.52
2023-03-31T16:17:12.258Z,72.71
2023-03-31T16:20:29.585Z,73.51
2023-03-31T16:23:51.709Z,73.66
2023-03-31T16:27:06.665Z,73.23
2023-03-31T16:30:27.722Z,73.31
2023-03-31T16:33:56.768Z,73.76
2023-03-31T16:37:11.804Z,73.19
2023-03-31T16:40:18.078Z,73.64
2023-03-31T16:43:27.604Z,72.73
2023-03-31T16:46:33.621Z,73.55
2023-03-31T16:49:40.653Z,73.60
2023-03-31T16:52:50.279Z,73.64
2023-03-31T16:55:58.662Z,73.27
2023-03-31T16:59:05.148Z,73.30
2023-03-31T17:02:14.691Z,73.07
2023-03-31T17:05:21.186Z,73.63
2023-03-31T17:08:40.512Z,70.47
2023-03-31T17:11:46.562Z,68.11
2023-03-31T17:14:53.567Z,67.77
2023-03-31T17:18:01.131Z,67.43
2023-03-31T17:21:12.001Z,65.99
2023-03-31T17:24:20.928Z,65.29
2023-03-31T17:27:28.285Z,64.54
2023-03-31T17:30:35.524Z,64.27
2023-03-31T17:33:44.059Z,63.91
2023-03-31T17:36:51.045Z,63.09
2023-03-31T17:40:00.526Z,63.29
2023-03-31T17:43:06.663Z,64.04
2023-03-31T17:46:16.453Z,66.63
2023-03-31T17:49:23.604Z,67.62
2023-03-31T17:52:30.548Z,69.13
2023-03-31T17:55:39.871Z,69.02
2023-03-31T17:58:47.397Z,69.33
2023-03-31T18:01:54.615Z,69.56
2023-03-31T18:05:03.712Z,69.46
2023-03-31T18:08:12.634Z,69.21
2023-03-31T18:11:22.338Z,67.82
2023-03-31T18:14:33.077Z,67.49
2023-03-31T18:17:43.529Z,67.48
2023-03-31T18:20:50.053Z,68.22
2023-03-31T18:23:57.006Z,67.58
2023-03-31T18:27:05.957Z,67.14
2023-03-31T18:30:15.060Z,66.82
2023-03-31T18:33:21.995Z,66.60
2023-03-31T18:36:43.029Z,66.88
2023-03-31T18:39:49.425Z,66.74
2023-03-31T18:42:59.526Z,67.05
2023-03-31T18:46:05.982Z,67.42
2023-03-31T18:49:17.912Z,67.63
2023-03-31T18:52:29.349Z,67.98
2023-03-31T18:55:39.317Z,69.10
2023-03-31T18:58:48.155Z,69.54
2023-03-31T19:01:56.550Z,70.06
2023-03-31T19:05:09.772Z,70.17
2023-03-31T19:08:18.431Z,70.19
2023-03-31T19:11:41.629Z,70.98
2023-03-31T19:14:51.292Z,73.11
2023-03-31T19:17:57.916Z,73.88
2023-03-31T19:21:06.747Z,73.77
2023-03-31T19:24:13.552Z,73.17
2023-03-31T19:27:20.550Z,72.74
2023-03-31T19:30:30.428Z,71.93
2023-03-31T19:33:38.311Z,70.98
2023-03-31T19:36:52.936Z,70.58
2023-03-31T19:40:02.896Z,70.71
2023-03-31T19:43:18.393Z,71.44
2023-03-31T19:46:28.291Z,71.47
2023-03-31T19:49:34.720Z,70.85
2023-03-31T19:52:42.591Z,70.29
2023-03-31T19:55:59.415Z,70.21
2023-03-31T19:59:06.472Z,69.45
2023-03-31T20:02:16.957Z,68.69
2023-03-31T20:05:24.121Z,68.17
2023-03-31T20:08:30.299Z,67.33
2023-03-31T20:11:37.761Z,66.61
2023-03-31T20:14:44.247Z,65.80
2023-03-31T20:17:54.233Z,64.95
2023-03-31T20:21:11.594Z,64.14
2023-03-31T20:24:29.349Z,63.72
2023-03-31T20:27:35.499Z,63.48
2023-03-31T20:30:42.420Z,63.60
2023-03-31T20:33:52.520Z,63.89
2023-03-31T20:36:59.636Z,64.64
2023-03-31T20:40:06.353Z,64.93
2023-03-31T20:43:16.444Z,65.42
2023-03-31T20:46:25.305Z,64.79
2023-03-31T20:49:37.761Z,65.22
2023-03-31T20:52:46.210Z,65.35
2023-03-31T20:55:54.215Z,65.70
2023-03-31T20:59:02.609Z,65.48
2023-03-31T21:02:09.550Z,65.86
2023-03-31T21:05:18.456Z,66.33
2023-03-31T21:08:25.537Z,66.36
2023-03-31T21:11:33.153Z,65.79
2023-03-31T21:14:40.550Z,65.72
2023-03-31T21:17:46.961Z,65.84
2023-03-31T21:21:00.304Z,64.98
2023-03-31T21:24:06.371Z,65.04
2023-03-31T21:27:13.288Z,64.45
2023-03-31T21:30:19.662Z,63.88
2023-03-31T21:33:28.921Z,63.27
2023-03-31T21:36:37.609Z,63.74
2023-03-31T21:39:45.678Z,63.81
2023-03-31T21:42:51.758Z,63.19
2023-03-31T21:46:05.474Z,63.41
2023-03-31T21:49:16.704Z,63.21
2023-03-31T21:52:26.939Z,63.25
2023-03-31T21:55:33.695Z,63.53
2023-03-31T21:58:40.844Z,64.28
2023-03-31T22:01:47.503Z,64.51
2023-03-31T22:04:54.505Z,65.44
2023-03-31T22:08:03.488Z,65.25
2023-03-31T22:11:14.038Z,65.74
2023-03-31T22:14:20.339Z,66.34
2023-03-31T22:17:28.284Z,66.24
2023-03-31T22:20:34.460Z,66.90
2023-03-31T22:23:43.933Z,67.22
2023-03-31T22:26:50.109Z,67.57
2023-03-31T22:29:57.093Z,68.11
2023-03-31T22:33:04.256Z,69.03
2023-03-31T22:36:12.193Z,69.48
2023-03-31T22:39:21.875Z,70.46
2023-03-31T22:42:28.883Z,71.08
2023-03-31T22:45:35.014Z,70.90
2023-03-31T22:48:41.876Z,71.04
2023-03-31T22:51:50.317Z,71.37
2023-03-31T22:54:59.856Z,71.51
2023-03-31T22:58:06.194Z,71.88
2023-03-31T23:01:18.100Z,72.01
2023-03-31T23:04:25.098Z,71.92
2023-03-31T23:07:32.438Z,72.37
2023-03-31T23:10:45.506Z,72.10
2023-03-31T23:13:52.466Z,72.37
2023-03-31T23:16:58.617Z,72.42
2023-03-31T23:20:06.767Z,72.67
2023-03-31T23:23:12.866Z,72.34
2023-03-31T23:26:23.501Z,72.53
2023-03-31T23:29:31.052Z,72.52
2023-03-31T23:32:38.080Z,72.67
2023-03-31T23:35:44.521Z,72.40
2023-03-31T23:38:52.725Z,72.41
2023-03-31T23:42:01.482Z,72.73
2023-03-31T23:45:10.350Z,72.34
2023-03-31T23:48:17.665Z,72.94
2023-03-31T23:51:24.828Z,73.07
2023-03-31T23:54:31.877Z,73.43
2023-03-31T23:57:41.647Z,73.92
